sensor_id;sensor_type;location;lat;lon;timestamp;pressure;altitude;pressure_sealevel;temperature;humidity
84083;BME280;74174;52.224;6.878;2024-01-30T00:02:10;102413.03;;;8.36;84.25
84083;BME280;74174;52.224;6.878;2024-01-30T00:04:36;102414.59;;;8.47;83.20
84083;BME280;74174;52.224;6.878;2024-01-30T00:07:01;102409.25;;;8.39;83.43
84083;BME280;74174;52.224;6.878;2024-01-30T00:09:29;102420.38;;;8.50;83.07
84083;BME280;74174;52.224;6.878;2024-01-30T00:11:54;102414.38;;;8.40;83.09
84083;BME280;74174;52.224;6.878;2024-01-30T00:14:20;102368.63;;;8.14;83.50
84083;BME280;74174;52.224;6.878;2024-01-30T00:16:45;102409.53;;;8.61;83.82
84083;BME280;74174;52.224;6.878;2024-01-30T00:19:11;102376.75;;;8.46;83.03
84083;BME280;74174;52.224;6.878;2024-01-30T00:21:37;102408.06;;;8.59;83.27
84083;BME280;74174;52.224;6.878;2024-01-30T00:24:02;102399.97;;;8.60;83.24
84083;BME280;74174;52.224;6.878;2024-01-30T00:26:28;102374.31;;;8.53;83.42
84083;BME280;74174;52.224;6.878;2024-01-30T00:28:54;102361.56;;;8.40;82.84
84083;BME280;74174;52.224;6.878;2024-01-30T00:31:19;102399.78;;;8.62;82.98
84083;BME280;74174;52.224;6.878;2024-01-30T00:33:45;102391.75;;;8.71;83.42
84083;BME280;74174;52.224;6.878;2024-01-30T00:36:11;102368.53;;;8.49;83.14
84083;BME280;74174;52.224;6.878;2024-01-30T00:38:36;102398.03;;;8.70;83.26
84083;BME280;74174;52.224;6.878;2024-01-30T00:41:02;102390.31;;;8.85;82.68
84083;BME280;74174;52.224;6.878;2024-01-30T00:43:28;102398.72;;;8.72;82.95
84083;BME280;74174;52.224;6.878;2024-01-30T00:45:54;102397.44;;;8.84;83.38
84083;BME280;74174;52.224;6.878;2024-01-30T00:48:20;102321.44;;;8.45;82.86
84083;BME280;74174;52.224;6.878;2024-01-30T00:50:47;102386.69;;;8.86;82.56
84083;BME280;74174;52.224;6.878;2024-01-30T00:53:14;102353.91;;;8.63;82.66
84083;BME280;74174;52.224;6.878;2024-01-30T00:55:39;102393.09;;;8.75;82.81
84083;BME280;74174;52.224;6.878;2024-01-30T00:58:04;102391.31;;;8.84;83.11
84083;BME280;74174;52.224;6.878;2024-01-30T01:00:30;102358.66;;;8.59;82.65
84083;BME280;74174;52.224;6.878;2024-01-30T01:02:58;102392.00;;;8.86;82.52
84083;BME280;74174;52.224;6.878;2024-01-30T01:05:25;102378.31;;;8.98;81.99
84083;BME280;74174;52.224;6.878;2024-01-30T01:07:51;102352.47;;;8.76;82.52
84083;BME280;74174;52.224;6.878;2024-01-30T01:10:17;102355.47;;;8.81;81.99
84083;BME280;74174;52.224;6.878;2024-01-30T01:12:43;102389.22;;;9.03;82.19
84083;BME280;74174;52.224;6.878;2024-01-30T01:15:09;102359.25;;;8.87;81.73
84083;BME280;74174;52.224;6.878;2024-01-30T01:17:38;102381.63;;;9.00;81.99
84083;BME280;74174;52.224;6.878;2024-01-30T01:20:04;102376.66;;;9.05;81.89
84083;BME280;74174;52.224;6.878;2024-01-30T01:22:32;102376.34;;;9.09;81.50
84083;BME280;74174;52.224;6.878;2024-01-30T01:25:01;102371.38;;;9.05;81.47
84083;BME280;74174;52.224;6.878;2024-01-30T01:27:26;102365.97;;;9.15;81.59
84083;BME280;74174;52.224;6.878;2024-01-30T01:29:52;102338.31;;;9.01;81.07
84083;BME280;74174;52.224;6.878;2024-01-30T01:32:19;102379.03;;;9.25;81.42
84083;BME280;74174;52.224;6.878;2024-01-30T01:34:45;102387.16;;;9.31;81.46
84083;BME280;74174;52.224;6.878;2024-01-30T01:37:11;102357.03;;;9.24;81.43
84083;BME280;74174;52.224;6.878;2024-01-30T01:39:37;102379.06;;;9.33;80.20
84083;BME280;74174;52.224;6.878;2024-01-30T01:42:03;102349.59;;;9.12;80.81
84083;BME280;74174;52.224;6.878;2024-01-30T01:44:28;102344.13;;;9.05;80.47
84083;BME280;74174;52.224;6.878;2024-01-30T01:46:54;102385.00;;;9.27;80.04
84083;BME280;74174;52.224;6.878;2024-01-30T01:49:21;102375.06;;;9.21;80.74
84083;BME280;74174;52.224;6.878;2024-01-30T01:51:47;102385.66;;;9.21;80.89
84083;BME280;74174;52.224;6.878;2024-01-30T01:54:14;102346.88;;;8.87;81.69
84083;BME280;74174;52.224;6.878;2024-01-30T01:56:40;102382.66;;;9.08;81.26
84083;BME280;74174;52.224;6.878;2024-01-30T01:59:08;102379.00;;;9.00;81.33
84083;BME280;74174;52.224;6.878;2024-01-30T02:01:35;102375.00;;;8.96;81.79
84083;BME280;74174;52.224;6.878;2024-01-30T02:04:01;102374.72;;;9.08;81.50
84083;BME280;74174;52.224;6.878;2024-01-30T02:06:27;102348.91;;;9.01;80.72
84083;BME280;74174;52.224;6.878;2024-01-30T02:08:56;102355.06;;;9.18;80.84
84083;BME280;74174;52.224;6.878;2024-01-30T02:11:22;102363.66;;;9.12;80.90
84083;BME280;74174;52.224;6.878;2024-01-30T02:13:48;102319.13;;;8.91;81.10
84083;BME280;74174;52.224;6.878;2024-01-30T02:16:14;102349.56;;;9.03;80.65
84083;BME280;74174;52.224;6.878;2024-01-30T02:18:40;102296.44;;;8.73;80.57
84083;BME280;74174;52.224;6.878;2024-01-30T02:21:12;102361.28;;;9.01;81.41
84083;BME280;74174;52.224;6.878;2024-01-30T02:23:39;102347.56;;;8.97;81.12
84083;BME280;74174;52.224;6.878;2024-01-30T02:26:06;102340.25;;;8.83;81.29
84083;BME280;74174;52.224;6.878;2024-01-30T02:28:31;102303.03;;;8.69;81.05
84083;BME280;74174;52.224;6.878;2024-01-30T02:30:58;102350.41;;;9.04;81.47
84083;BME280;74174;52.224;6.878;2024-01-30T02:33:23;102278.34;;;8.44;81.42
84083;BME280;74174;52.224;6.878;2024-01-30T02:35:48;102348.53;;;8.88;81.85
84083;BME280;74174;52.224;6.878;2024-01-30T02:38:15;102342.25;;;8.89;81.68
84083;BME280;74174;52.224;6.878;2024-01-30T02:40:41;102339.81;;;8.96;81.21
84083;BME280;74174;52.224;6.878;2024-01-30T02:43:07;102344.91;;;8.89;81.28
84083;BME280;74174;52.224;6.878;2024-01-30T02:45:33;102310.94;;;8.61;81.31
84083;BME280;74174;52.224;6.878;2024-01-30T02:47:58;102309.09;;;8.61;82.06
84083;BME280;74174;52.224;6.878;2024-01-30T02:50:24;102337.94;;;8.80;82.23
84083;BME280;74174;52.224;6.878;2024-01-30T02:52:50;102340.56;;;8.80;82.10
84083;BME280;74174;52.224;6.878;2024-01-30T02:55:15;102337.25;;;8.70;81.82
84083;BME280;74174;52.224;6.878;2024-01-30T02:57:43;102328.97;;;8.73;82.01
84083;BME280;74174;52.224;6.878;2024-01-30T03:00:09;102328.16;;;8.73;81.75
84083;BME280;74174;52.224;6.878;2024-01-30T03:02:35;102329.34;;;8.78;82.18
84083;BME280;74174;52.224;6.878;2024-01-30T03:05:01;102327.34;;;8.72;81.96
84083;BME280;74174;52.224;6.878;2024-01-30T03:07:28;102325.06;;;8.77;81.95
84083;BME280;74174;52.224;6.878;2024-01-30T03:09:54;102311.97;;;8.76;81.46
84083;BME280;74174;52.224;6.878;2024-01-30T03:12:21;102321.53;;;8.69;82.16
84083;BME280;74174;52.224;6.878;2024-01-30T03:14:46;102317.94;;;8.78;82.07
84083;BME280;74174;52.224;6.878;2024-01-30T03:17:11;102222.19;;;8.08;81.60
84083;BME280;74174;52.224;6.878;2024-01-30T03:19:37;102317.56;;;8.73;81.71
84083;BME280;74174;52.224;6.878;2024-01-30T03:22:02;102309.47;;;8.66;81.78
84083;BME280;74174;52.224;6.878;2024-01-30T03:24:33;102275.53;;;8.46;81.55
84083;BME280;74174;52.224;6.878;2024-01-30T03:26:59;102298.88;;;8.58;82.04
84083;BME280;74174;52.224;6.878;2024-01-30T03:29:25;102272.44;;;8.58;81.28
84083;BME280;74174;52.224;6.878;2024-01-30T03:31:50;102306.16;;;8.64;81.66
84083;BME280;74174;52.224;6.878;2024-01-30T03:34:16;102261.00;;;8.42;82.12
84083;BME280;74174;52.224;6.878;2024-01-30T03:36:41;102295.94;;;8.69;82.29
84083;BME280;74174;52.224;6.878;2024-01-30T03:39:07;102304.03;;;8.68;81.86
84083;BME280;74174;52.224;6.878;2024-01-30T03:41:32;102259.19;;;8.50;82.28
84083;BME280;74174;52.224;6.878;2024-01-30T03:43:58;102299.84;;;8.57;81.95
84083;BME280;74174;52.224;6.878;2024-01-30T03:46:25;102298.09;;;8.66;81.54
84083;BME280;74174;52.224;6.878;2024-01-30T03:48:51;102290.91;;;8.50;81.87
84083;BME280;74174;52.224;6.878;2024-01-30T03:51:16;102308.31;;;8.61;82.56
84083;BME280;74174;52.224;6.878;2024-01-30T03:53:42;102257.41;;;8.51;81.96
84083;BME280;74174;52.224;6.878;2024-01-30T03:56:08;102294.78;;;8.72;82.25
84083;BME280;74174;52.224;6.878;2024-01-30T03:58:34;102278.75;;;8.73;81.65
84083;BME280;74174;52.224;6.878;2024-01-30T04:00:59;102271.97;;;8.71;82.00
84083;BME280;74174;52.224;6.878;2024-01-30T04:03:26;102284.41;;;8.78;81.28
84083;BME280;74174;52.224;6.878;2024-01-30T04:05:58;102281.56;;;8.80;81.32
84083;BME280;74174;52.224;6.878;2024-01-30T04:08:23;102285.53;;;8.76;81.14
84083;BME280;74174;52.224;6.878;2024-01-30T04:10:49;102287.22;;;8.77;81.78
84083;BME280;74174;52.224;6.878;2024-01-30T04:13:16;102284.38;;;8.70;81.84
84083;BME280;74174;52.224;6.878;2024-01-30T04:15:42;102279.91;;;8.71;81.60
84083;BME280;74174;52.224;6.878;2024-01-30T04:18:07;102279.59;;;8.74;81.89
84083;BME280;74174;52.224;6.878;2024-01-30T04:20:33;102277.31;;;8.79;81.75
84083;BME280;74174;52.224;6.878;2024-01-30T04:22:59;102271.03;;;8.88;81.61
84083;BME280;74174;52.224;6.878;2024-01-30T04:25:26;102264.59;;;8.90;80.39
84083;BME280;74174;52.224;6.878;2024-01-30T04:27:51;102271.38;;;8.93;81.08
84083;BME280;74174;52.224;6.878;2024-01-30T04:30:17;102274.69;;;8.95;80.72
84083;BME280;74174;52.224;6.878;2024-01-30T04:32:44;102271.56;;;8.99;80.83
84083;BME280;74174;52.224;6.878;2024-01-30T04:35:09;102268.56;;;8.94;81.25
84083;BME280;74174;52.224;6.878;2024-01-30T04:37:35;102255.66;;;8.91;80.41
84083;BME280;74174;52.224;6.878;2024-01-30T04:40:01;102256.00;;;8.88;80.94
84083;BME280;74174;52.224;6.878;2024-01-30T04:42:28;102257.47;;;8.83;81.00
84083;BME280;74174;52.224;6.878;2024-01-30T04:44:55;102258.78;;;8.87;81.45
84083;BME280;74174;52.224;6.878;2024-01-30T04:47:20;102259.13;;;8.92;81.26
84083;BME280;74174;52.224;6.878;2024-01-30T04:49:47;102258.31;;;8.91;81.55
84083;BME280;74174;52.224;6.878;2024-01-30T04:52:18;102253.03;;;8.91;81.04
84083;BME280;74174;52.224;6.878;2024-01-30T04:54:44;102252.53;;;8.88;81.22
84083;BME280;74174;52.224;6.878;2024-01-30T04:57:09;102248.75;;;8.90;80.91
84083;BME280;74174;52.224;6.878;2024-01-30T04:59:37;102229.06;;;8.85;81.31
84083;BME280;74174;52.224;6.878;2024-01-30T05:02:02;102254.19;;;8.89;80.74
84083;BME280;74174;52.224;6.878;2024-01-30T05:04:34;102254.72;;;9.09;81.05
84083;BME280;74174;52.224;6.878;2024-01-30T05:07:00;102256.00;;;8.96;81.01
84083;BME280;74174;52.224;6.878;2024-01-30T05:09:25;102261.00;;;9.08;80.92
84083;BME280;74174;52.224;6.878;2024-01-30T05:11:51;102242.78;;;8.88;80.42
84083;BME280;74174;52.224;6.878;2024-01-30T05:14:17;102263.78;;;8.98;81.11
84083;BME280;74174;52.224;6.878;2024-01-30T05:16:43;102259.50;;;8.89;80.26
84083;BME280;74174;52.224;6.878;2024-01-30T05:19:13;102265.25;;;8.84;81.58
84083;BME280;74174;52.224;6.878;2024-01-30T05:21:39;102247.38;;;8.70;81.39
84083;BME280;74174;52.224;6.878;2024-01-30T05:24:06;102268.56;;;8.86;81.39
84083;BME280;74174;52.224;6.878;2024-01-30T05:26:32;102254.69;;;8.92;80.75
84083;BME280;74174;52.224;6.878;2024-01-30T05:28:58;102265.56;;;8.89;81.53
84083;BME280;74174;52.224;6.878;2024-01-30T05:31:26;102267.91;;;8.84;81.22
84083;BME280;74174;52.224;6.878;2024-01-30T05:33:54;102262.09;;;8.81;81.61
84083;BME280;74174;52.224;6.878;2024-01-30T05:36:19;102254.97;;;8.73;81.69
84083;BME280;74174;52.224;6.878;2024-01-30T05:38:46;102257.25;;;8.68;82.01
84083;BME280;74174;52.224;6.878;2024-01-30T05:41:11;102257.97;;;8.70;81.36
84083;BME280;74174;52.224;6.878;2024-01-30T05:43:36;102256.63;;;8.74;81.79
84083;BME280;74174;52.224;6.878;2024-01-30T05:46:03;102240.75;;;8.66;81.46
84083;BME280;74174;52.224;6.878;2024-01-30T05:48:29;102248.72;;;8.74;80.76
84083;BME280;74174;52.224;6.878;2024-01-30T05:50:54;102251.03;;;8.77;81.77
84083;BME280;74174;52.224;6.878;2024-01-30T05:53:21;102241.28;;;8.70;81.90
84083;BME280;74174;52.224;6.878;2024-01-30T05:55:47;102249.06;;;8.79;81.97
84083;BME280;74174;52.224;6.878;2024-01-30T05:58:12;102243.78;;;8.87;81.75
84083;BME280;74174;52.224;6.878;2024-01-30T06:00:37;102239.81;;;8.91;81.67
84083;BME280;74174;52.224;6.878;2024-01-30T06:03:03;102244.94;;;8.93;81.39
84083;BME280;74174;52.224;6.878;2024-01-30T06:05:31;102237.00;;;8.93;81.76
84083;BME280;74174;52.224;6.878;2024-01-30T06:07:56;102239.81;;;8.91;81.19
84083;BME280;74174;52.224;6.878;2024-01-30T06:10:22;102249.09;;;8.95;81.56
84083;BME280;74174;52.224;6.878;2024-01-30T06:12:48;102231.69;;;8.85;81.87
84083;BME280;74174;52.224;6.878;2024-01-30T06:15:14;102227.91;;;8.79;81.83
84083;BME280;74174;52.224;6.878;2024-01-30T06:17:41;102245.75;;;8.85;82.01
84083;BME280;74174;52.224;6.878;2024-01-30T06:20:07;102247.56;;;8.85;81.66
84083;BME280;74174;52.224;6.878;2024-01-30T06:22:32;102252.88;;;8.93;81.97
84083;BME280;74174;52.224;6.878;2024-01-30T06:25:00;102251.22;;;8.92;81.75
84083;BME280;74174;52.224;6.878;2024-01-30T06:27:26;102256.16;;;8.87;82.24
84083;BME280;74174;52.224;6.878;2024-01-30T06:29:51;102255.34;;;8.94;81.41
84083;BME280;74174;52.224;6.878;2024-01-30T06:32:17;102251.69;;;8.87;81.81
84083;BME280;74174;52.224;6.878;2024-01-30T06:34:43;102250.22;;;8.85;81.71
84083;BME280;74174;52.224;6.878;2024-01-30T06:37:09;102257.66;;;8.89;82.27
84083;BME280;74174;52.224;6.878;2024-01-30T06:39:35;102247.91;;;8.82;81.67
84083;BME280;74174;52.224;6.878;2024-01-30T06:42:01;102249.06;;;8.79;81.48
84083;BME280;74174;52.224;6.878;2024-01-30T06:44:27;102250.69;;;8.80;82.24
84083;BME280;74174;52.224;6.878;2024-01-30T06:46:54;102247.41;;;8.86;82.02
84083;BME280;74174;52.224;6.878;2024-01-30T06:49:21;102234.84;;;8.80;82.34
84083;BME280;74174;52.224;6.878;2024-01-30T06:51:47;102249.84;;;8.80;82.51
84083;BME280;74174;52.224;6.878;2024-01-30T06:54:14;102249.09;;;8.95;81.99
84083;BME280;74174;52.224;6.878;2024-01-30T06:56:39;102254.19;;;8.97;81.41
84083;BME280;74174;52.224;6.878;2024-01-30T06:59:04;102253.03;;;8.99;81.57
84083;BME280;74174;52.224;6.878;2024-01-30T07:01:30;102264.63;;;9.07;81.25
84083;BME280;74174;52.224;6.878;2024-01-30T07:03:56;102263.94;;;8.96;82.09
84083;BME280;74174;52.224;6.878;2024-01-30T07:06:21;102259.34;;;9.07;81.80
84083;BME280;74174;52.224;6.878;2024-01-30T07:08:49;102265.47;;;9.07;81.68
84083;BME280;74174;52.224;6.878;2024-01-30T07:11:21;102257.00;;;9.03;81.49
84083;BME280;74174;52.224;6.878;2024-01-30T07:13:48;102249.41;;;8.92;81.67
84083;BME280;74174;52.224;6.878;2024-01-30T07:16:14;102235.22;;;8.93;82.13
84083;BME280;74174;52.224;6.878;2024-01-30T07:18:40;102249.91;;;8.96;81.81
84083;BME280;74174;52.224;6.878;2024-01-30T07:21:05;102249.41;;;8.92;81.90
84083;BME280;74174;52.224;6.878;2024-01-30T07:23:31;102251.09;;;9.10;81.45
84083;BME280;74174;52.224;6.878;2024-01-30T07:25:58;102259.16;;;9.00;82.31
84083;BME280;74174;52.224;6.878;2024-01-30T07:28:24;102249.09;;;8.95;82.01
84083;BME280;74174;52.224;6.878;2024-01-30T07:30:50;102259.84;;;9.10;82.12
84083;BME280;74174;52.224;6.878;2024-01-30T07:33:15;102268.94;;;9.08;82.15
84083;BME280;74174;52.224;6.878;2024-01-30T07:35:41;102263.63;;;8.99;82.51
84083;BME280;74174;52.224;6.878;2024-01-30T07:38:06;102267.94;;;9.09;81.74
84083;BME280;74174;52.224;6.878;2024-01-30T07:40:32;102248.91;;;8.89;82.38
84083;BME280;74174;52.224;6.878;2024-01-30T07:42:58;102268.56;;;8.94;83.03
84083;BME280;74174;52.224;6.878;2024-01-30T07:45:26;102254.22;;;9.05;82.59
84083;BME280;74174;52.224;6.878;2024-01-30T07:47:52;102261.94;;;8.98;82.66
84083;BME280;74174;52.224;6.878;2024-01-30T07:50:18;102245.09;;;8.91;82.10
84083;BME280;74174;52.224;6.878;2024-01-30T07:52:44;102276.34;;;9.04;82.52
84083;BME280;74174;52.224;6.878;2024-01-30T07:55:10;102273.84;;;8.94;82.99
84083;BME280;74174;52.224;6.878;2024-01-30T07:57:39;102279.66;;;9.06;82.41
84083;BME280;74174;52.224;6.878;2024-01-30T08:00:05;102275.53;;;9.03;83.01
84083;BME280;74174;52.224;6.878;2024-01-30T08:02:32;102268.59;;;9.02;82.56
84083;BME280;74174;52.224;6.878;2024-01-30T08:04:58;102280.84;;;9.12;82.39
84083;BME280;74174;52.224;6.878;2024-01-30T08:07:24;102277.03;;;9.22;82.02
84083;BME280;74174;52.224;6.878;2024-01-30T08:09:50;102269.75;;;9.24;82.00
84083;BME280;74174;52.224;6.878;2024-01-30T08:12:16;102274.72;;;9.27;82.04
84083;BME280;74174;52.224;6.878;2024-01-30T08:14:42;102271.75;;;9.22;82.64
84083;BME280;74174;52.224;6.878;2024-01-30T08:17:07;102272.25;;;9.26;82.33
84083;BME280;74174;52.224;6.878;2024-01-30T08:19:33;102280.19;;;9.34;81.67
84083;BME280;74174;52.224;6.878;2024-01-30T08:21:58;102288.63;;;9.37;82.55
84083;BME280;74174;52.224;6.878;2024-01-30T08:24:24;102298.03;;;9.32;82.64
84083;BME280;74174;52.224;6.878;2024-01-30T08:26:56;102292.41;;;9.27;82.40
84083;BME280;74174;52.224;6.878;2024-01-30T08:29:23;102282.16;;;9.32;82.16
84083;BME280;74174;52.224;6.878;2024-01-30T08:31:51;102284.81;;;9.32;82.14
84083;BME280;74174;52.224;6.878;2024-01-30T08:34:18;102296.91;;;9.42;82.09
84083;BME280;74174;52.224;6.878;2024-01-30T08:36:43;102289.78;;;9.51;82.46
84083;BME280;74174;52.224;6.878;2024-01-30T08:39:15;102287.44;;;9.48;82.45
84083;BME280;74174;52.224;6.878;2024-01-30T08:41:40;102287.81;;;9.45;82.81
84083;BME280;74174;52.224;6.878;2024-01-30T08:44:05;102299.53;;;9.66;81.62
84083;BME280;74174;52.224;6.878;2024-01-30T08:46:31;102304.66;;;9.68;81.50
84083;BME280;74174;52.224;6.878;2024-01-30T08:48:58;102297.22;;;9.80;82.04
84083;BME280;74174;52.224;6.878;2024-01-30T08:51:23;102301.81;;;9.86;81.06
84083;BME280;74174;52.224;6.878;2024-01-30T08:53:50;102308.78;;;9.87;81.19
84083;BME280;74174;52.224;6.878;2024-01-30T08:56:15;102283.78;;;9.81;81.31
84083;BME280;74174;52.224;6.878;2024-01-30T08:58:41;102299.69;;;9.89;81.29
84083;BME280;74174;52.224;6.878;2024-01-30T09:01:07;102287.28;;;9.82;81.58
84083;BME280;74174;52.224;6.878;2024-01-30T09:03:32;102298.16;;;9.95;80.96
84083;BME280;74174;52.224;6.878;2024-01-30T09:06:13;102299.97;;;9.94;81.11
84083;BME280;74174;52.224;6.878;2024-01-30T09:08:40;102300.31;;;9.99;80.94
84083;BME280;74174;52.224;6.878;2024-01-30T09:11:14;102309.59;;;10.11;80.83
84083;BME280;74174;52.224;6.878;2024-01-30T09:13:42;102316.00;;;10.09;81.19
84083;BME280;74174;52.224;6.878;2024-01-30T09:16:09;102300.16;;;10.17;79.76
84083;BME280;74174;52.224;6.878;2024-01-30T09:18:35;102309.59;;;10.19;80.08
84083;BME280;74174;52.224;6.878;2024-01-30T09:21:01;102305.78;;;10.14;81.32
84083;BME280;74174;52.224;6.878;2024-01-30T09:23:29;102307.41;;;10.23;80.42
84083;BME280;74174;52.224;6.878;2024-01-30T09:25:56;102299.50;;;10.15;81.05
84083;BME280;74174;52.224;6.878;2024-01-30T09:28:22;102307.91;;;10.18;80.78
84083;BME280;74174;52.224;6.878;2024-01-30T09:30:49;102297.13;;;10.28;79.57
84083;BME280;74174;52.224;6.878;2024-01-30T09:33:14;102306.91;;;10.27;80.47
84083;BME280;74174;52.224;6.878;2024-01-30T09:35:40;102299.13;;;10.26;80.12
84083;BME280;74174;52.224;6.878;2024-01-30T09:38:05;102304.09;;;10.29;79.93
84083;BME280;74174;52.224;6.878;2024-01-30T09:40:31;102317.13;;;10.38;79.46
84083;BME280;74174;52.224;6.878;2024-01-30T09:42:58;102302.59;;;10.26;79.72
84083;BME280;74174;52.224;6.878;2024-01-30T09:45:27;102307.66;;;10.44;80.33
84083;BME280;74174;52.224;6.878;2024-01-30T09:47:53;102301.34;;;10.53;79.46
84083;BME280;74174;52.224;6.878;2024-01-30T09:50:20;102303.78;;;10.63;79.80
84083;BME280;74174;52.224;6.878;2024-01-30T09:52:47;102302.41;;;10.67;78.74
84083;BME280;74174;52.224;6.878;2024-01-30T09:55:12;102297.72;;;10.85;78.62
84083;BME280;74174;52.224;6.878;2024-01-30T09:57:38;102301.00;;;10.87;79.46
84083;BME280;74174;52.224;6.878;2024-01-30T10:00:05;102315.47;;;11.07;78.74
84083;BME280;74174;52.224;6.878;2024-01-30T10:02:35;102320.78;;;11.07;78.33
84083;BME280;74174;52.224;6.878;2024-01-30T10:05:01;102312.47;;;11.10;78.26
84083;BME280;74174;52.224;6.878;2024-01-30T10:07:27;102328.22;;;11.11;78.44
84083;BME280;74174;52.224;6.878;2024-01-30T10:09:53;102329.06;;;11.04;79.08
84083;BME280;74174;52.224;6.878;2024-01-30T10:12:19;102326.84;;;11.16;78.15
84083;BME280;74174;52.224;6.878;2024-01-30T10:14:44;102324.69;;;11.19;77.10
84083;BME280;74174;52.224;6.878;2024-01-30T10:17:11;102334.53;;;11.10;77.74
84083;BME280;74174;52.224;6.878;2024-01-30T10:19:39;102329.03;;;11.12;77.80
84083;BME280;74174;52.224;6.878;2024-01-30T10:22:05;102336.22;;;11.03;78.59
84083;BME280;74174;52.224;6.878;2024-01-30T10:24:31;102333.00;;;11.16;78.76
84083;BME280;74174;52.224;6.878;2024-01-30T10:26:57;102327.03;;;11.14;78.27
84083;BME280;74174;52.224;6.878;2024-01-30T10:29:24;102333.28;;;11.21;79.06
84083;BME280;74174;52.224;6.878;2024-01-30T10:32:02;102333.53;;;11.34;78.26
84083;BME280;74174;52.224;6.878;2024-01-30T10:34:28;102329.53;;;11.38;77.46
84083;BME280;74174;52.224;6.878;2024-01-30T10:37:11;102325.41;;;11.36;77.99
84083;BME280;74174;52.224;6.878;2024-01-30T10:39:43;102318.53;;;11.41;77.27
84083;BME280;74174;52.224;6.878;2024-01-30T10:42:14;102323.94;;;11.33;78.57
84083;BME280;74174;52.224;6.878;2024-01-30T10:44:57;102324.91;;;11.32;77.77
84083;BME280;74174;52.224;6.878;2024-01-30T10:47:27;102311.00;;;11.30;78.89
84083;BME280;74174;52.224;6.878;2024-01-30T10:49:56;102305.56;;;11.24;79.11
84083;BME280;74174;52.224;6.878;2024-01-30T10:52:26;102305.53;;;11.32;78.85
84083;BME280;74174;52.224;6.878;2024-01-30T10:54:54;102305.69;;;11.30;79.41
84083;BME280;74174;52.224;6.878;2024-01-30T10:57:24;102314.91;;;11.42;79.28
84083;BME280;74174;52.224;6.878;2024-01-30T10:59:52;102299.22;;;11.33;78.68
84083;BME280;74174;52.224;6.878;2024-01-30T11:02:22;102311.72;;;11.47;78.28
84083;BME280;74174;52.224;6.878;2024-01-30T11:04:49;102316.47;;;11.51;78.92
84083;BME280;74174;52.224;6.878;2024-01-30T11:07:19;102305.28;;;11.41;79.13
84083;BME280;74174;52.224;6.878;2024-01-30T11:10:09;102332.13;;;11.46;79.37
84083;BME280;74174;52.224;6.878;2024-01-30T11:12:39;102337.06;;;11.49;78.85
84083;BME280;74174;52.224;6.878;2024-01-30T11:15:10;102330.94;;;11.49;78.80
84083;BME280;74174;52.224;6.878;2024-01-30T11:20:18;102312.22;;;11.65;78.95
84083;BME280;74174;52.224;6.878;2024-01-30T11:22:45;102320.03;;;11.66;79.04
84083;BME280;74174;52.224;6.878;2024-01-30T11:25:13;102315.50;;;11.67;79.16
84083;BME280;74174;52.224;6.878;2024-01-30T11:27:41;102332.25;;;11.75;79.02
84083;BME280;74174;52.224;6.878;2024-01-30T11:30:08;102334.09;;;11.67;79.62
84083;BME280;74174;52.224;6.878;2024-01-30T11:32:35;102312.38;;;11.71;79.26
84083;BME280;74174;52.224;6.878;2024-01-30T11:35:03;102328.97;;;11.65;79.83
84083;BME280;74174;52.224;6.878;2024-01-30T11:37:30;102317.22;;;11.68;79.54
84083;BME280;74174;52.224;6.878;2024-01-30T11:39:58;102328.41;;;11.78;79.15
84083;BME280;74174;52.224;6.878;2024-01-30T11:42:24;102325.84;;;11.85;78.78
84083;BME280;74174;52.224;6.878;2024-01-30T11:44:59;102323.25;;;11.76;78.87
84083;BME280;74174;52.224;6.878;2024-01-30T11:47:25;102335.84;;;11.83;78.50
84083;BME280;74174;52.224;6.878;2024-01-30T11:49:50;102327.50;;;11.86;79.15
84083;BME280;74174;52.224;6.878;2024-01-30T11:52:16;102326.50;;;11.87;78.69
84083;BME280;74174;52.224;6.878;2024-01-30T11:54:45;102329.69;;;11.82;79.14
84083;BME280;74174;52.224;6.878;2024-01-30T11:57:10;102318.34;;;11.73;79.28
84083;BME280;74174;52.224;6.878;2024-01-30T11:59:38;102330.81;;;11.88;79.34
84083;BME280;74174;52.224;6.878;2024-01-30T12:02:04;102332.53;;;11.81;79.77
84083;BME280;74174;52.224;6.878;2024-01-30T12:04:29;102325.13;;;11.76;79.19
84083;BME280;74174;52.224;6.878;2024-01-30T12:06:55;102320.75;;;11.83;78.35
84083;BME280;74174;52.224;6.878;2024-01-30T12:09:22;102324.56;;;11.81;79.89
84083;BME280;74174;52.224;6.878;2024-01-30T12:11:49;102312.09;;;11.81;79.24
84083;BME280;74174;52.224;6.878;2024-01-30T12:14:17;102310.84;;;11.92;80.06
84083;BME280;74174;52.224;6.878;2024-01-30T12:16:50;102312.72;;;12.20;78.18
84083;BME280;74174;52.224;6.878;2024-01-30T12:19:23;102307.84;;;12.38;77.63
84083;BME280;74174;52.224;6.878;2024-01-30T12:21:57;102309.59;;;12.46;77.03
84083;BME280;74174;52.224;6.878;2024-01-30T12:24:25;102291.34;;;12.43;77.07
84083;BME280;74174;52.224;6.878;2024-01-30T12:26:56;102298.47;;;12.57;77.07
84083;BME280;74174;52.224;6.878;2024-01-30T12:29:23;102300.31;;;12.57;77.46
84083;BME280;74174;52.224;6.878;2024-01-30T12:31:54;102313.94;;;12.68;75.63
84083;BME280;74174;52.224;6.878;2024-01-30T12:34:20;102306.69;;;12.77;76.02
84083;BME280;74174;52.224;6.878;2024-01-30T12:36:47;102313.31;;;12.81;75.27
84083;BME280;74174;52.224;6.878;2024-01-30T12:39:14;102301.00;;;12.80;75.43
84083;BME280;74174;52.224;6.878;2024-01-30T12:41:40;102306.38;;;12.86;75.04
84083;BME280;74174;52.224;6.878;2024-01-30T12:44:08;102307.41;;;12.85;74.18
84083;BME280;74174;52.224;6.878;2024-01-30T12:46:36;102308.16;;;12.79;74.31
84083;BME280;74174;52.224;6.878;2024-01-30T12:49:02;102313.66;;;12.78;74.82
84083;BME280;74174;52.224;6.878;2024-01-30T12:51:28;102308.09;;;12.58;75.05
84083;BME280;74174;52.224;6.878;2024-01-30T12:53:53;102306.97;;;12.67;74.56
84083;BME280;74174;52.224;6.878;2024-01-30T12:56:19;102312.06;;;12.62;74.52
84083;BME280;74174;52.224;6.878;2024-01-30T12:58:45;102310.88;;;12.50;74.85